Nearby Weather Observations


KTIP - Rantoul, Illinois, USA
Distance from station: ENE 12mi, 19km
Updated: Mon, 23-Apr-2018 12:35am CDT
Clear
Clear
 Wind from ENE
Wind: ENE 15 mph , 24 km/h
Temperature: 52°F , 11°C
Dew Point: 32°F , 0°C
Humidity: 47%
Barometer: 30.15 inHg , 1021 hPa
Clouds: Clear
Visibility: 10 miles , 16 km
2018/04/23 05:35 KTIP 230535Z AUTO 06013KT 10SM CLR 11/00 A3015 RMK AO2 T01130000
KCMI - Champaign/Urbana, Illinois, USA
Distance from station: SSE 14mi, 22km
Updated: Sun, 22-Apr-2018 11:53pm CDT
Clear
Clear
 Wind from NE
Wind: NE 15 mph , 24 km/h
Temperature: 54°F , 12°C
Dew Point: 34°F , 1°C
Humidity: 47%
Barometer: 30.13 inHg , 1020.3 hPa
Clouds: Clear
Visibility: 10 miles , 16 km
2018/04/23 04:53 KCMI 230453Z AUTO 05013KT 10SM CLR 12/01 A3013 RMK AO2 SLP203 T01220006
 
KBMI - Bloomington/Norm, Illinois, USA
Distance from station: WNW 34mi, 55km
Updated: Sun, 22-Apr-2018 11:56pm CDT
Clear
Clear
 Wind from NE
Wind: NE 13 mph , 20 km/h
Temperature: 46°F , 8°C
Wind Chill: 40°F , 4°C
Dew Point: 34°F , 1°C
Humidity: 62%
Barometer: 30.17 inHg , 1021.7 hPa
Clouds: Clear
Visibility: 10 miles , 16 km
2018/04/23 04:56 KBMI 230456Z AUTO 04011KT 10SM CLR 08/01 A3017 RMK AO2 SLP244 T00830006 $
KDEC - Decatur, Illinois, USA
Distance from station: SW 37mi, 60km
Updated: Sun, 22-Apr-2018 11:54pm CDT
Partly cloudy
Partly cloudy
 Wind from ENE
Wind: ENE 15 mph , 24 km/h
Temperature: 55°F , 13°C
Dew Point: 32°F , 0°C
Humidity: 41%
Barometer: 30.10 inHg , 1019.3 hPa
Clouds: Partly cloudy
Visibility: 10 miles , 16 km
Cloud details: Partly cloudy 11000 ft
2018/04/23 04:54 KDEC 230454Z AUTO 07013KT 10SM SCT110 13/00 A3010 RMK AO2 SLP194 T01280000
 
KDNV - Danville, Illinois, USA
Distance from station: E 40mi, 65km
Updated: Mon, 23-Apr-2018 12:35am CDT
Clear
Clear
 Wind from ENE
Wind: ENE 9 mph , 15 km/h
Temperature: 50°F , 10°C
Wind Chill: 46°F , 8°C
Dew Point: 30°F , -1°C
Humidity: 47%
Barometer: 30.13 inHg , 1020.3 hPa
Clouds: Clear
Visibility: 10 miles , 16 km
2018/04/23 05:35 KDNV 230535Z AUTO 06008KT 10SM CLR 10/M01 A3013 RMK AO2 T01021006
KAAA - Lincoln, Illinois, USA
Distance from station: W 52mi, 83km
Updated: Mon, 23-Apr-2018 12:35am CDT
Clear
Clear
 Wind from ENE
Wind: ENE 15 mph , 24 km/h
Temperature: 54°F , 12°C
Dew Point: 36°F , 2°C
Humidity: 51%
Barometer: 30.13 inHg , 1020.3 hPa
Clouds: Clear
Visibility: 10 miles , 16 km
2018/04/23 05:35 KAAA 230535Z AUTO 06013KT 10SM CLR 12/02 A3013 RMK AO2 T01180018
 
KMTO - Mattoon/Charlest, Illinois, USA
Distance from station: S 52mi, 84km
Updated: Sun, 22-Apr-2018 11:53pm CDT
Overcast
Overcast
 Wind from ENE
Wind: ENE 17 mph , 28 km/h, Gust: 24 mph , 39 km/h
Temperature: 57°F , 14°C
Dew Point: 36°F , 2°C
Humidity: 44%
Barometer: 30.08 inHg , 1018.6 hPa
Clouds: Overcast
Visibility: 10 miles , 16 km
Cloud details: Overcast 8500 ft
2018/04/23 04:53 KMTO 230453Z AUTO 07015G21KT 10SM OVC085 14/02 A3008 RMK AO2 SLP184 T01390017
KSPI - Springfield, Illinois, USA
Distance from station: WSW 74mi, 120km
Updated: Sun, 22-Apr-2018 11:52pm CDT
Mostly cloudy
Mostly cloudy
 Wind from ENE
Wind: ENE 14 mph , 22 km/h
Temperature: 57°F , 14°C
Dew Point: 34°F , 1°C
Humidity: 41%
Barometer: 30.10 inHg , 1019.3 hPa
Clouds: Mostly cloudy
Visibility: 10 miles , 16 km
Cloud details: Mostly cloudy 9500 ft
2018/04/23 04:52 KSPI 230452Z AUTO 06012KT 10SM BKN095 14/01 A3010 RMK AO2 SLP192 T01440011
 
KLAF - Lafayette, Indiana, USA
Distance from station: E 76mi, 123km
Updated: Sun, 22-Apr-2018 11:54pm CDT
Clear
Clear
 Wind from ENE
Wind: ENE 16 mph , 26 km/h
Temperature: 48°F , 9°C
Wind Chill: 42°F , 6°C
Dew Point: 28°F , -2°C
Humidity: 46%
Barometer: 30.18 inHg , 1022 hPa
Clouds: Clear
Visibility: 10 miles , 16 km
2018/04/23 04:54 KLAF 230454Z AUTO 06014KT 10SM CLR 09/M02 A3018 RMK AO2 SLP219 T00941022 401890067
KPIA - Peoria, Illinois, USA
Distance from station: WNW 76mi, 123km
Updated: Sun, 22-Apr-2018 11:54pm CDT
Clear
Clear
 Wind from ENE
Wind: ENE 12 mph , 19 km/h
Temperature: 52°F , 11°C
Dew Point: 30°F , -1°C
Humidity: 44%
Barometer: 30.17 inHg , 1021.7 hPa
Clouds: Clear
Visibility: 10 miles , 16 km
2018/04/23 04:54 KPIA 230454Z 07010KT 10SM CLR 11/M01 A3017 RMK AO2 SLP215 T01111011 $
 
KHUF - Terre Haute, Indiana, USA
Distance from station: SE 77mi, 124km
Updated: Sun, 22-Apr-2018 11:53pm CDT
Overcast
Overcast
 Wind from ENE
Wind: ENE 13 mph , 20 km/h
Temperature: 57°F , 14°C
Dew Point: 34°F , 1°C
Humidity: 41%
Barometer: 30.10 inHg , 1019.3 hPa
Clouds: Overcast
Visibility: 10 miles , 16 km
Cloud details: Overcast 9000 ft
2018/04/23 04:53 KHUF 230453Z 07011KT 10SM OVC090 14/01 A3010 RMK AO2 SLP190 T01440011 402000083
K1H2 - Effingham, Illinois, USA
Distance from station: S 80mi, 129km
Updated: Mon, 23-Apr-2018 12:35am CDT
Overcast
Overcast
 Wind from NNE
Wind: NNE 8 mph , 13 km/h
Temperature: 59°F , 15°C
Dew Point: 36°F , 2°C
Humidity: 42%
Barometer: 30.06 inHg , 1017.9 hPa
Clouds: Overcast
Visibility: 10 miles , 16 km
Cloud details: Overcast 9000 ft
2018/04/23 05:35 K1H2 230535Z AUTO 03007KT 10SM OVC090 15/02 A3006 RMK AO2 T01480020
 
KIND - Indianapolis, Indiana, USA
Distance from station: ESE 117mi, 133km
Updated: Sun, 22-Apr-2018 11:54pm CDT
Mostly cloudy
Mostly cloudy
 Wind from NE
Wind: NE 14 mph , 22 km/h
Temperature: 54°F , 12°C
Dew Point: 32°F , 0°C
Humidity: 44%
Barometer: 30.13 inHg , 1020.3 hPa
Clouds: Mostly cloudy
Visibility: 10 miles , 16 km
Cloud details: Partly cloudy 13000 ft
Mostly cloudy 20000 ft
2018/04/23 04:54 KIND 230454Z 05012KT 10SM SCT130 BKN200 12/00 A3013 RMK AO2 SLP204 T01220000 401890078
KORD - Chicago O'hare, Illinois, USA
Distance from station: N 126mi, 203km
Updated: Sun, 22-Apr-2018 11:51pm CDT
Mostly cloudy
Mostly cloudy
 Wind from NE
Wind: NE 8 mph , 13 km/h
Temperature: 45°F , 7°C
Wind Chill: 41°F , 5°C
Dew Point: 28°F , -2°C
Humidity: 53%
Barometer: 30.23 inHg , 1023.7 hPa
Clouds: Mostly cloudy
Visibility: 10 miles , 16 km
Cloud details: Few Clouds 22000 ft
Mostly cloudy 25000 ft
2018/04/23 04:51 KORD 230451Z 04007KT 10SM FEW220 BKN250 07/M02 A3023 RMK AO2 SLP239 T00721022
 
KSTL - St. Louis, Missouri, USA
Distance from station: SW 150mi, 185km
Updated: Sun, 22-Apr-2018 11:51pm CDT
Overcast
Overcast
 Wind from ENE
Wind: ENE 10 mph , 17 km/h
Temperature: 57°F , 14°C
Dew Point: 46°F , 8°C
Humidity: 67%
Barometer: 30.04 inHg , 1017.3 hPa
Clouds: Overcast
Visibility: 10 miles , 16 km
Cloud details: Partly cloudy 6000 ft
Mostly cloudy 7500 ft
Overcast 9000 ft
2018/04/23 04:51 KSTL 230451Z 06009KT 10SM SCT060 BKN075 OVC090 14/08 A3004 RMK AO2 RAE0358 SLP170 P0000 T01440083